sensor_id;sensor_type;location;lat;lon;timestamp;P1;durP1;ratioP1;P2;durP2;ratioP2
70727;SDS011;58314;47.722;17.652;2022-07-18T00:00:41;3.83;;;1.25;;
70727;SDS011;58314;47.722;17.652;2022-07-18T00:03:42;3.20;;;1.08;;
70727;SDS011;58314;47.722;17.652;2022-07-18T00:06:42;4.00;;;1.27;;
70727;SDS011;58314;47.722;17.652;2022-07-18T00:09:43;5.03;;;1.40;;
70727;SDS011;58314;47.722;17.652;2022-07-18T00:12:44;4.25;;;1.40;;
70727;SDS011;58314;47.722;17.652;2022-07-18T00:15:44;2.08;;;1.25;;
70727;SDS011;58314;47.722;17.652;2022-07-18T00:18:45;3.38;;;1.13;;
70727;SDS011;58314;47.722;17.652;2022-07-18T00:21:48;6.35;;;1.50;;
70727;SDS011;58314;47.722;17.652;2022-07-18T00:24:50;3.30;;;1.25;;
70727;SDS011;58314;47.722;17.652;2022-07-18T00:27:51;4.00;;;1.30;;
70727;SDS011;58314;47.722;17.652;2022-07-18T00:30:51;2.53;;;1.20;;
70727;SDS011;58314;47.722;17.652;2022-07-18T00:33:52;4.35;;;1.40;;
70727;SDS011;58314;47.722;17.652;2022-07-18T00:36:53;7.55;;;1.70;;
70727;SDS011;58314;47.722;17.652;2022-07-18T00:39:53;3.30;;;1.23;;
70727;SDS011;58314;47.722;17.652;2022-07-18T00:42:54;2.53;;;1.30;;
70727;SDS011;58314;47.722;17.652;2022-07-18T00:45:55;4.60;;;1.30;;
70727;SDS011;58314;47.722;17.652;2022-07-18T00:48:56;5.28;;;1.75;;
70727;SDS011;58314;47.722;17.652;2022-07-18T00:51:56;5.32;;;1.60;;
70727;SDS011;58314;47.722;17.652;2022-07-18T00:54:57;6.18;;;1.40;;
70727;SDS011;58314;47.722;17.652;2022-07-18T00:57:58;5.03;;;1.42;;
70727;SDS011;58314;47.722;17.652;2022-07-18T01:00:59;3.95;;;1.40;;
70727;SDS011;58314;47.722;17.652;2022-07-18T01:04:22;4.40;;;1.40;;
70727;SDS011;58314;47.722;17.652;2022-07-18T01:07:23;3.63;;;1.48;;
70727;SDS011;58314;47.722;17.652;2022-07-18T01:10:24;4.57;;;1.48;;
70727;SDS011;58314;47.722;17.652;2022-07-18T01:13:25;4.40;;;1.35;;
70727;SDS011;58314;47.722;17.652;2022-07-18T01:16:25;2.88;;;1.23;;
70727;SDS011;58314;47.722;17.652;2022-07-18T01:19:26;5.70;;;1.50;;
70727;SDS011;58314;47.722;17.652;2022-07-18T01:22:27;6.20;;;1.58;;
70727;SDS011;58314;47.722;17.652;2022-07-18T01:25:27;5.47;;;1.30;;
70727;SDS011;58314;47.722;17.652;2022-07-18T01:28:28;4.47;;;1.42;;
70727;SDS011;58314;47.722;17.652;2022-07-18T01:31:29;3.63;;;1.58;;
70727;SDS011;58314;47.722;17.652;2022-07-18T01:34:33;4.15;;;1.40;;
70727;SDS011;58314;47.722;17.652;2022-07-18T01:37:34;4.82;;;1.60;;
70727;SDS011;58314;47.722;17.652;2022-07-18T01:40:35;3.95;;;1.38;;
70727;SDS011;58314;47.722;17.652;2022-07-18T01:43:39;2.47;;;1.08;;
70727;SDS011;58314;47.722;17.652;2022-07-18T01:46:41;5.10;;;1.50;;
70727;SDS011;58314;47.722;17.652;2022-07-18T01:49:43;3.45;;;1.25;;
70727;SDS011;58314;47.722;17.652;2022-07-18T01:52:43;4.85;;;1.35;;
70727;SDS011;58314;47.722;17.652;2022-07-18T01:55:44;5.13;;;1.60;;
70727;SDS011;58314;47.722;17.652;2022-07-18T01:58:45;3.17;;;1.40;;
70727;SDS011;58314;47.722;17.652;2022-07-18T02:01:45;5.07;;;1.30;;
70727;SDS011;58314;47.722;17.652;2022-07-18T02:04:46;3.80;;;1.48;;
70727;SDS011;58314;47.722;17.652;2022-07-18T02:08:03;4.70;;;1.50;;
70727;SDS011;58314;47.722;17.652;2022-07-18T02:11:04;3.83;;;1.40;;
70727;SDS011;58314;47.722;17.652;2022-07-18T02:14:04;3.95;;;1.40;;
70727;SDS011;58314;47.722;17.652;2022-07-18T02:17:07;4.35;;;1.58;;
70727;SDS011;58314;47.722;17.652;2022-07-18T02:20:08;3.45;;;1.45;;
70727;SDS011;58314;47.722;17.652;2022-07-18T02:23:10;3.55;;;1.30;;
70727;SDS011;58314;47.722;17.652;2022-07-18T02:26:11;3.88;;;1.50;;
70727;SDS011;58314;47.722;17.652;2022-07-18T02:29:12;3.38;;;1.27;;
70727;SDS011;58314;47.722;17.652;2022-07-18T02:32:13;2.67;;;1.10;;
70727;SDS011;58314;47.722;17.652;2022-07-18T02:35:13;2.97;;;1.20;;
70727;SDS011;58314;47.722;17.652;2022-07-18T02:38:14;2.47;;;1.15;;
70727;SDS011;58314;47.722;17.652;2022-07-18T02:41:15;4.57;;;1.23;;
70727;SDS011;58314;47.722;17.652;2022-07-18T02:44:15;4.68;;;2.00;;
70727;SDS011;58314;47.722;17.652;2022-07-18T02:47:16;3.50;;;1.67;;
70727;SDS011;58314;47.722;17.652;2022-07-18T02:50:17;4.50;;;1.73;;
70727;SDS011;58314;47.722;17.652;2022-07-18T02:53:18;6.07;;;1.90;;
70727;SDS011;58314;47.722;17.652;2022-07-18T02:56:19;4.70;;;1.73;;
70727;SDS011;58314;47.722;17.652;2022-07-18T02:59:20;3.60;;;1.60;;
70727;SDS011;58314;47.722;17.652;2022-07-18T03:02:21;6.80;;;1.67;;
70727;SDS011;58314;47.722;17.652;2022-07-18T03:05:21;4.95;;;1.73;;
70727;SDS011;58314;47.722;17.652;2022-07-18T03:08:22;5.63;;;1.42;;
70727;SDS011;58314;47.722;17.652;2022-07-18T03:11:23;6.78;;;1.85;;
70727;SDS011;58314;47.722;17.652;2022-07-18T03:14:23;5.25;;;1.40;;
70727;SDS011;58314;47.722;17.652;2022-07-18T03:17:24;5.47;;;1.70;;
70727;SDS011;58314;47.722;17.652;2022-07-18T03:20:25;2.95;;;1.38;;
70727;SDS011;58314;47.722;17.652;2022-07-18T03:23:26;4.72;;;1.90;;
70727;SDS011;58314;47.722;17.652;2022-07-18T03:26:27;5.32;;;1.50;;
70727;SDS011;58314;47.722;17.652;2022-07-18T03:29:27;3.60;;;1.30;;
70727;SDS011;58314;47.722;17.652;2022-07-18T03:32:28;6.60;;;2.00;;
70727;SDS011;58314;47.722;17.652;2022-07-18T03:35:28;4.20;;;1.80;;
70727;SDS011;58314;47.722;17.652;2022-07-18T03:38:29;5.47;;;1.90;;
70727;SDS011;58314;47.722;17.652;2022-07-18T03:41:30;4.82;;;1.83;;
70727;SDS011;58314;47.722;17.652;2022-07-18T03:44:30;4.00;;;1.70;;
70727;SDS011;58314;47.722;17.652;2022-07-18T03:47:31;5.57;;;1.95;;
70727;SDS011;58314;47.722;17.652;2022-07-18T03:50:32;5.28;;;1.70;;
70727;SDS011;58314;47.722;17.652;2022-07-18T03:53:35;3.55;;;1.65;;
70727;SDS011;58314;47.722;17.652;2022-07-18T03:56:36;4.47;;;1.73;;
70727;SDS011;58314;47.722;17.652;2022-07-18T03:59:37;4.47;;;1.83;;
70727;SDS011;58314;47.722;17.652;2022-07-18T04:02:42;5.55;;;2.10;;
70727;SDS011;58314;47.722;17.652;2022-07-18T04:05:44;7.63;;;2.20;;
70727;SDS011;58314;47.722;17.652;2022-07-18T04:08:45;7.72;;;1.95;;
70727;SDS011;58314;47.722;17.652;2022-07-18T04:11:45;12.75;;;2.25;;
70727;SDS011;58314;47.722;17.652;2022-07-18T04:14:46;11.75;;;2.38;;
70727;SDS011;58314;47.722;17.652;2022-07-18T04:17:47;15.50;;;2.60;;
70727;SDS011;58314;47.722;17.652;2022-07-18T04:20:47;10.63;;;2.60;;
70727;SDS011;58314;47.722;17.652;2022-07-18T04:23:48;11.32;;;2.28;;
70727;SDS011;58314;47.722;17.652;2022-07-18T04:26:49;8.85;;;2.38;;
70727;SDS011;58314;47.722;17.652;2022-07-18T04:29:49;7.40;;;2.10;;
70727;SDS011;58314;47.722;17.652;2022-07-18T04:32:50;9.15;;;2.03;;
70727;SDS011;58314;47.722;17.652;2022-07-18T04:35:51;5.13;;;1.85;;
70727;SDS011;58314;47.722;17.652;2022-07-18T04:38:52;10.13;;;2.58;;
70727;SDS011;58314;47.722;17.652;2022-07-18T04:41:52;7.93;;;1.85;;
70727;SDS011;58314;47.722;17.652;2022-07-18T04:44:53;6.18;;;1.80;;
70727;SDS011;58314;47.722;17.652;2022-07-18T04:47:54;6.85;;;1.90;;
70727;SDS011;58314;47.722;17.652;2022-07-18T04:50:57;5.18;;;1.85;;
70727;SDS011;58314;47.722;17.652;2022-07-18T04:53:58;6.43;;;1.52;;
70727;SDS011;58314;47.722;17.652;2022-07-18T04:56:59;6.85;;;1.73;;
70727;SDS011;58314;47.722;17.652;2022-07-18T05:00:00;3.60;;;1.55;;
70727;SDS011;58314;47.722;17.652;2022-07-18T05:03:05;3.20;;;1.20;;
70727;SDS011;58314;47.722;17.652;2022-07-18T05:06:05;4.07;;;1.40;;
70727;SDS011;58314;47.722;17.652;2022-07-18T05:09:06;4.82;;;1.48;;
70727;SDS011;58314;47.722;17.652;2022-07-18T05:12:07;6.97;;;1.52;;
70727;SDS011;58314;47.722;17.652;2022-07-18T05:15:09;4.63;;;1.30;;
70727;SDS011;58314;47.722;17.652;2022-07-18T05:18:11;5.85;;;1.30;;
70727;SDS011;58314;47.722;17.652;2022-07-18T05:21:12;3.65;;;1.30;;
70727;SDS011;58314;47.722;17.652;2022-07-18T05:24:13;3.88;;;1.30;;
70727;SDS011;58314;47.722;17.652;2022-07-18T05:27:13;5.57;;;1.30;;
70727;SDS011;58314;47.722;17.652;2022-07-18T05:30:14;2.50;;;1.10;;
70727;SDS011;58314;47.722;17.652;2022-07-18T05:33:15;4.05;;;1.27;;
70727;SDS011;58314;47.722;17.652;2022-07-18T05:36:16;2.55;;;1.20;;
70727;SDS011;58314;47.722;17.652;2022-07-18T05:39:16;2.45;;;0.90;;
70727;SDS011;58314;47.722;17.652;2022-07-18T05:42:17;1.77;;;0.98;;
70727;SDS011;58314;47.722;17.652;2022-07-18T05:45:18;6.93;;;1.92;;
70727;SDS011;58314;47.722;17.652;2022-07-18T05:48:19;3.28;;;1.20;;
70727;SDS011;58314;47.722;17.652;2022-07-18T05:51:19;3.03;;;1.25;;
70727;SDS011;58314;47.722;17.652;2022-07-18T05:54:21;3.97;;;1.00;;
70727;SDS011;58314;47.722;17.652;2022-07-18T05:57:22;2.05;;;0.90;;
70727;SDS011;58314;47.722;17.652;2022-07-18T06:00:22;4.07;;;1.60;;
70727;SDS011;58314;47.722;17.652;2022-07-18T06:03:23;3.15;;;1.42;;
70727;SDS011;58314;47.722;17.652;2022-07-18T06:06:24;5.85;;;1.60;;
70727;SDS011;58314;47.722;17.652;2022-07-18T06:09:25;3.42;;;1.00;;
70727;SDS011;58314;47.722;17.652;2022-07-18T06:12:27;3.35;;;1.20;;
70727;SDS011;58314;47.722;17.652;2022-07-18T06:15:31;2.75;;;1.20;;
70727;SDS011;58314;47.722;17.652;2022-07-18T06:18:32;2.22;;;0.90;;
70727;SDS011;58314;47.722;17.652;2022-07-18T06:21:34;1.85;;;1.00;;
70727;SDS011;58314;47.722;17.652;2022-07-18T06:24:35;2.80;;;0.98;;
70727;SDS011;58314;47.722;17.652;2022-07-18T06:27:36;3.40;;;1.00;;
70727;SDS011;58314;47.722;17.652;2022-07-18T06:30:36;1.83;;;1.10;;
70727;SDS011;58314;47.722;17.652;2022-07-18T06:33:37;3.90;;;1.15;;
70727;SDS011;58314;47.722;17.652;2022-07-18T06:36:38;4.18;;;1.00;;
70727;SDS011;58314;47.722;17.652;2022-07-18T06:39:39;2.67;;;1.05;;
70727;SDS011;58314;47.722;17.652;2022-07-18T06:42:39;2.17;;;0.70;;
70727;SDS011;58314;47.722;17.652;2022-07-18T06:45:40;2.88;;;1.05;;
70727;SDS011;58314;47.722;17.652;2022-07-18T06:48:41;2.08;;;0.82;;
70727;SDS011;58314;47.722;17.652;2022-07-18T06:51:41;1.38;;;0.57;;
70727;SDS011;58314;47.722;17.652;2022-07-18T06:54:42;2.17;;;0.90;;
70727;SDS011;58314;47.722;17.652;2022-07-18T06:57:43;1.80;;;0.80;;
70727;SDS011;58314;47.722;17.652;2022-07-18T07:00:44;2.22;;;0.80;;
70727;SDS011;58314;47.722;17.652;2022-07-18T07:03:45;3.38;;;0.70;;
70727;SDS011;58314;47.722;17.652;2022-07-18T07:06:46;2.15;;;0.95;;
70727;SDS011;58314;47.722;17.652;2022-07-18T07:09:47;4.20;;;1.00;;
70727;SDS011;58314;47.722;17.652;2022-07-18T07:12:48;4.32;;;1.00;;
70727;SDS011;58314;47.722;17.652;2022-07-18T07:15:50;4.38;;;1.00;;
70727;SDS011;58314;47.722;17.652;2022-07-18T07:18:51;4.55;;;0.82;;
70727;SDS011;58314;47.722;17.652;2022-07-18T07:21:52;2.25;;;1.10;;
70727;SDS011;58314;47.722;17.652;2022-07-18T07:24:52;1.48;;;0.70;;
70727;SDS011;58314;47.722;17.652;2022-07-18T07:27:53;1.90;;;0.80;;
70727;SDS011;58314;47.722;17.652;2022-07-18T07:30:54;3.75;;;1.10;;
70727;SDS011;58314;47.722;17.652;2022-07-18T07:33:55;5.00;;;1.20;;
70727;SDS011;58314;47.722;17.652;2022-07-18T07:36:56;4.97;;;1.25;;
70727;SDS011;58314;47.722;17.652;2022-07-18T07:39:57;5.88;;;1.00;;
70727;SDS011;58314;47.722;17.652;2022-07-18T07:43:04;4.60;;;1.10;;
70727;SDS011;58314;47.722;17.652;2022-07-18T07:46:09;4.43;;;1.20;;
70727;SDS011;58314;47.722;17.652;2022-07-18T07:49:12;3.08;;;0.70;;
70727;SDS011;58314;47.722;17.652;2022-07-18T07:52:13;2.42;;;0.80;;
70727;SDS011;58314;47.722;17.652;2022-07-18T07:55:14;4.97;;;1.10;;
70727;SDS011;58314;47.722;17.652;2022-07-18T07:58:15;2.13;;;0.82;;
70727;SDS011;58314;47.722;17.652;2022-07-18T08:01:16;5.15;;;1.27;;
70727;SDS011;58314;47.722;17.652;2022-07-18T08:04:19;3.63;;;0.65;;
70727;SDS011;58314;47.722;17.652;2022-07-18T08:07:20;4.18;;;0.85;;
70727;SDS011;58314;47.722;17.652;2022-07-18T08:10:21;1.17;;;0.50;;
70727;SDS011;58314;47.722;17.652;2022-07-18T08:13:21;3.22;;;0.80;;
70727;SDS011;58314;47.722;17.652;2022-07-18T08:16:22;3.17;;;0.50;;
70727;SDS011;58314;47.722;17.652;2022-07-18T08:19:23;3.40;;;0.90;;
70727;SDS011;58314;47.722;17.652;2022-07-18T08:22:23;2.63;;;0.70;;
70727;SDS011;58314;47.722;17.652;2022-07-18T08:25:24;2.90;;;0.70;;
70727;SDS011;58314;47.722;17.652;2022-07-18T08:28:26;3.53;;;0.73;;
70727;SDS011;58314;47.722;17.652;2022-07-18T08:31:27;4.88;;;1.08;;
70727;SDS011;58314;47.722;17.652;2022-07-18T08:34:28;4.13;;;0.80;;
70727;SDS011;58314;47.722;17.652;2022-07-18T08:37:29;1.85;;;0.70;;
70727;SDS011;58314;47.722;17.652;2022-07-18T08:40:30;2.40;;;0.70;;
70727;SDS011;58314;47.722;17.652;2022-07-18T08:43:31;1.98;;;0.60;;
70727;SDS011;58314;47.722;17.652;2022-07-18T08:46:31;1.88;;;0.63;;
70727;SDS011;58314;47.722;17.652;2022-07-18T08:49:35;3.40;;;0.65;;
70727;SDS011;58314;47.722;17.652;2022-07-18T08:52:36;3.78;;;0.60;;
70727;SDS011;58314;47.722;17.652;2022-07-18T08:55:39;2.03;;;0.70;;
70727;SDS011;58314;47.722;17.652;2022-07-18T08:58:40;3.10;;;0.60;;
70727;SDS011;58314;47.722;17.652;2022-07-18T09:01:40;2.42;;;0.60;;
70727;SDS011;58314;47.722;17.652;2022-07-18T09:04:41;2.65;;;0.55;;
70727;SDS011;58314;47.722;17.652;2022-07-18T09:07:43;3.53;;;0.98;;
70727;SDS011;58314;47.722;17.652;2022-07-18T09:13:52;6.97;;;0.98;;
70727;SDS011;58314;47.722;17.652;2022-07-18T09:20:05;3.55;;;0.77;;
70727;SDS011;58314;47.722;17.652;2022-07-18T09:23:12;3.65;;;0.80;;
70727;SDS011;58314;47.722;17.652;2022-07-18T09:26:16;5.38;;;0.80;;
70727;SDS011;58314;47.722;17.652;2022-07-18T09:29:37;2.03;;;0.60;;
70727;SDS011;58314;47.722;17.652;2022-07-18T09:32:38;2.28;;;0.70;;
70727;SDS011;58314;47.722;17.652;2022-07-18T09:38:52;2.88;;;0.70;;
70727;SDS011;58314;47.722;17.652;2022-07-18T09:41:54;2.63;;;0.85;;
70727;SDS011;58314;47.722;17.652;2022-07-18T09:45:12;2.13;;;0.70;;
70727;SDS011;58314;47.722;17.652;2022-07-18T09:48:15;3.40;;;1.00;;
70727;SDS011;58314;47.722;17.652;2022-07-18T09:51:17;3.22;;;0.70;;
70727;SDS011;58314;47.722;17.652;2022-07-18T09:54:18;2.97;;;0.52;;
70727;SDS011;58314;47.722;17.652;2022-07-18T09:57:26;3.55;;;0.90;;
70727;SDS011;58314;47.722;17.652;2022-07-18T10:00:28;2.92;;;0.95;;
70727;SDS011;58314;47.722;17.652;2022-07-18T10:03:30;2.00;;;0.60;;
70727;SDS011;58314;47.722;17.652;2022-07-18T10:06:31;3.97;;;0.85;;
70727;SDS011;58314;47.722;17.652;2022-07-18T10:09:33;1.35;;;0.60;;
70727;SDS011;58314;47.722;17.652;2022-07-18T10:12:34;2.08;;;0.75;;
70727;SDS011;58314;47.722;17.652;2022-07-18T10:15:36;2.78;;;0.60;;
70727;SDS011;58314;47.722;17.652;2022-07-18T10:18:38;6.50;;;0.77;;
70727;SDS011;58314;47.722;17.652;2022-07-18T10:21:39;4.55;;;0.80;;
70727;SDS011;58314;47.722;17.652;2022-07-18T10:24:41;1.83;;;0.57;;
70727;SDS011;58314;47.722;17.652;2022-07-18T10:27:53;3.05;;;0.95;;
70727;SDS011;58314;47.722;17.652;2022-07-18T10:31:14;2.30;;;0.82;;
70727;SDS011;58314;47.722;17.652;2022-07-18T10:34:16;2.60;;;0.60;;
70727;SDS011;58314;47.722;17.652;2022-07-18T10:37:26;1.38;;;0.50;;
70727;SDS011;58314;47.722;17.652;2022-07-18T10:40:34;4.90;;;0.88;;
70727;SDS011;58314;47.722;17.652;2022-07-18T10:43:36;3.10;;;0.80;;
70727;SDS011;58314;47.722;17.652;2022-07-18T10:50:12;5.78;;;0.80;;
70727;SDS011;58314;47.722;17.652;2022-07-18T10:53:13;7.40;;;1.50;;
70727;SDS011;58314;47.722;17.652;2022-07-18T10:56:13;9.23;;;6.03;;
70727;SDS011;58314;47.722;17.652;2022-07-18T10:59:14;5.35;;;1.67;;
70727;SDS011;58314;47.722;17.652;2022-07-18T11:02:16;3.35;;;1.15;;
70727;SDS011;58314;47.722;17.652;2022-07-18T11:08:29;3.70;;;0.93;;
70727;SDS011;58314;47.722;17.652;2022-07-18T11:11:31;3.53;;;1.08;;
70727;SDS011;58314;47.722;17.652;2022-07-18T11:18:02;1.90;;;0.65;;
70727;SDS011;58314;47.722;17.652;2022-07-18T11:21:15;7.35;;;1.40;;
70727;SDS011;58314;47.722;17.652;2022-07-18T11:24:27;5.55;;;0.60;;
70727;SDS011;58314;47.722;17.652;2022-07-18T11:27:28;2.08;;;0.50;;
70727;SDS011;58314;47.722;17.652;2022-07-18T11:30:30;5.65;;;0.70;;
70727;SDS011;58314;47.722;17.652;2022-07-18T11:33:32;4.10;;;2.00;;
70727;SDS011;58314;47.722;17.652;2022-07-18T11:36:38;3.88;;;0.90;;
70727;SDS011;58314;47.722;17.652;2022-07-18T11:39:40;3.30;;;0.60;;
70727;SDS011;58314;47.722;17.652;2022-07-18T11:42:41;7.63;;;1.10;;
70727;SDS011;58314;47.722;17.652;2022-07-18T11:45:42;2.42;;;0.43;;
70727;SDS011;58314;47.722;17.652;2022-07-18T11:48:45;4.72;;;0.90;;
70727;SDS011;58314;47.722;17.652;2022-07-18T11:51:57;8.73;;;1.20;;
70727;SDS011;58314;47.722;17.652;2022-07-18T11:55:01;5.68;;;1.10;;
70727;SDS011;58314;47.722;17.652;2022-07-18T11:58:12;2.15;;;0.43;;
70727;SDS011;58314;47.722;17.652;2022-07-18T12:01:14;5.95;;;0.95;;
70727;SDS011;58314;47.722;17.652;2022-07-18T12:04:19;5.35;;;0.95;;
70727;SDS011;58314;47.722;17.652;2022-07-18T12:07:24;2.35;;;0.30;;
70727;SDS011;58314;47.722;17.652;2022-07-18T12:10:25;2.42;;;0.40;;
70727;SDS011;58314;47.722;17.652;2022-07-18T12:13:26;1.17;;;0.30;;
70727;SDS011;58314;47.722;17.652;2022-07-18T12:19:34;3.95;;;0.50;;
70727;SDS011;58314;47.722;17.652;2022-07-18T12:26:08;2.95;;;0.57;;
70727;SDS011;58314;47.722;17.652;2022-07-18T12:29:09;2.50;;;0.40;;
70727;SDS011;58314;47.722;17.652;2022-07-18T12:32:16;2.55;;;0.50;;
70727;SDS011;58314;47.722;17.652;2022-07-18T12:38:20;4.45;;;0.98;;
70727;SDS011;58314;47.722;17.652;2022-07-18T12:41:27;1.42;;;0.40;;
70727;SDS011;58314;47.722;17.652;2022-07-18T12:44:29;4.03;;;0.50;;
70727;SDS011;58314;47.722;17.652;2022-07-18T12:47:30;2.70;;;0.47;;
70727;SDS011;58314;47.722;17.652;2022-07-18T12:50:31;2.55;;;0.45;;
70727;SDS011;58314;47.722;17.652;2022-07-18T12:53:33;1.38;;;0.40;;
70727;SDS011;58314;47.722;17.652;2022-07-18T12:59:36;3.55;;;0.55;;
70727;SDS011;58314;47.722;17.652;2022-07-18T13:02:36;0.95;;;0.30;;
70727;SDS011;58314;47.722;17.652;2022-07-18T13:05:37;2.05;;;0.40;;
70727;SDS011;58314;47.722;17.652;2022-07-18T13:08:38;2.08;;;0.40;;
70727;SDS011;58314;47.722;17.652;2022-07-18T13:11:39;1.83;;;0.38;;
70727;SDS011;58314;47.722;17.652;2022-07-18T13:14:41;0.75;;;0.40;;
70727;SDS011;58314;47.722;17.652;2022-07-18T13:17:41;2.60;;;0.40;;
70727;SDS011;58314;47.722;17.652;2022-07-18T13:20:42;1.80;;;0.30;;
70727;SDS011;58314;47.722;17.652;2022-07-18T13:23:43;1.67;;;0.40;;
70727;SDS011;58314;47.722;17.652;2022-07-18T13:26:44;2.95;;;0.40;;
70727;SDS011;58314;47.722;17.652;2022-07-18T13:29:47;1.40;;;0.40;;
70727;SDS011;58314;47.722;17.652;2022-07-18T13:32:48;1.42;;;0.30;;
70727;SDS011;58314;47.722;17.652;2022-07-18T13:35:49;3.45;;;0.50;;
70727;SDS011;58314;47.722;17.652;2022-07-18T13:38:49;1.65;;;0.40;;
70727;SDS011;58314;47.722;17.652;2022-07-18T13:41:50;0.88;;;0.30;;
70727;SDS011;58314;47.722;17.652;2022-07-18T13:44:51;3.42;;;0.43;;
70727;SDS011;58314;47.722;17.652;2022-07-18T13:47:52;2.80;;;0.50;;
70727;SDS011;58314;47.722;17.652;2022-07-18T13:50:52;3.60;;;0.38;;
70727;SDS011;58314;47.722;17.652;2022-07-18T13:53:53;2.63;;;0.63;;
70727;SDS011;58314;47.722;17.652;2022-07-18T13:56:54;1.98;;;0.60;;
70727;SDS011;58314;47.722;17.652;2022-07-18T13:59:54;1.48;;;0.40;;
70727;SDS011;58314;47.722;17.652;2022-07-18T14:02:55;1.30;;;0.20;;
70727;SDS011;58314;47.722;17.652;2022-07-18T14:05:56;2.97;;;0.40;;
70727;SDS011;58314;47.722;17.652;2022-07-18T14:08:57;0.77;;;0.35;;
70727;SDS011;58314;47.722;17.652;2022-07-18T14:11:57;2.67;;;0.40;;
70727;SDS011;58314;47.722;17.652;2022-07-18T14:14:58;3.70;;;0.43;;
70727;SDS011;58314;47.722;17.652;2022-07-18T14:17:59;1.38;;;0.30;;
70727;SDS011;58314;47.722;17.652;2022-07-18T14:21:00;2.50;;;0.38;;
70727;SDS011;58314;47.722;17.652;2022-07-18T14:24:01;3.65;;;0.40;;
70727;SDS011;58314;47.722;17.652;2022-07-18T14:27:02;1.75;;;0.38;;
70727;SDS011;58314;47.722;17.652;2022-07-18T14:30:04;2.05;;;0.40;;
70727;SDS011;58314;47.722;17.652;2022-07-18T14:33:06;2.47;;;0.45;;
70727;SDS011;58314;47.722;17.652;2022-07-18T14:36:07;9.18;;;1.40;;
70727;SDS011;58314;47.722;17.652;2022-07-18T14:39:08;1.38;;;0.30;;
70727;SDS011;58314;47.722;17.652;2022-07-18T14:42:08;4.60;;;0.43;;
70727;SDS011;58314;47.722;17.652;2022-07-18T14:45:09;1.02;;;0.30;;
70727;SDS011;58314;47.722;17.652;2022-07-18T14:48:10;1.20;;;0.30;;
70727;SDS011;58314;47.722;17.652;2022-07-18T14:51:11;2.83;;;0.40;;
70727;SDS011;58314;47.722;17.652;2022-07-18T14:54:11;2.28;;;0.60;;
70727;SDS011;58314;47.722;17.652;2022-07-18T14:57:12;4.97;;;0.50;;
70727;SDS011;58314;47.722;17.652;2022-07-18T15:00:16;2.25;;;0.40;;
70727;SDS011;58314;47.722;17.652;2022-07-18T15:03:16;2.30;;;0.30;;
70727;SDS011;58314;47.722;17.652;2022-07-18T15:06:17;1.75;;;0.30;;
70727;SDS011;58314;47.722;17.652;2022-07-18T15:09:18;4.18;;;0.50;;
70727;SDS011;58314;47.722;17.652;2022-07-18T15:12:18;2.05;;;0.43;;
70727;SDS011;58314;47.722;17.652;2022-07-18T15:15:19;1.33;;;0.30;;
70727;SDS011;58314;47.722;17.652;2022-07-18T15:18:20;3.03;;;0.30;;
70727;SDS011;58314;47.722;17.652;2022-07-18T15:21:21;1.38;;;0.40;;
70727;SDS011;58314;47.722;17.652;2022-07-18T15:24:21;1.05;;;0.25;;
70727;SDS011;58314;47.722;17.652;2022-07-18T15:27:22;0.88;;;0.35;;
70727;SDS011;58314;47.722;17.652;2022-07-18T15:30:23;2.78;;;0.40;;
70727;SDS011;58314;47.722;17.652;2022-07-18T15:33:24;1.17;;;0.40;;
70727;SDS011;58314;47.722;17.652;2022-07-18T15:36:24;2.67;;;0.50;;
70727;SDS011;58314;47.722;17.652;2022-07-18T15:39:25;3.67;;;0.52;;
70727;SDS011;58314;47.722;17.652;2022-07-18T15:42:26;2.47;;;0.47;;
70727;SDS011;58314;47.722;17.652;2022-07-18T15:45:26;2.60;;;0.40;;
70727;SDS011;58314;47.722;17.652;2022-07-18T15:48:27;2.78;;;0.30;;
70727;SDS011;58314;47.722;17.652;2022-07-18T15:51:28;2.67;;;0.38;;
70727;SDS011;58314;47.722;17.652;2022-07-18T15:54:29;1.70;;;0.40;;
70727;SDS011;58314;47.722;17.652;2022-07-18T15:57:29;3.25;;;0.35;;
70727;SDS011;58314;47.722;17.652;2022-07-18T16:00:30;2.63;;;0.30;;
70727;SDS011;58314;47.722;17.652;2022-07-18T16:03:31;2.50;;;0.50;;
70727;SDS011;58314;47.722;17.652;2022-07-18T16:06:31;0.65;;;0.25;;
70727;SDS011;58314;47.722;17.652;2022-07-18T16:09:32;2.90;;;0.30;;
70727;SDS011;58314;47.722;17.652;2022-07-18T16:12:33;2.17;;;0.40;;
70727;SDS011;58314;47.722;17.652;2022-07-18T16:15:34;1.85;;;0.40;;
70727;SDS011;58314;47.722;17.652;2022-07-18T16:18:35;1.10;;;0.40;;
70727;SDS011;58314;47.722;17.652;2022-07-18T16:21:36;3.75;;;0.40;;
70727;SDS011;58314;47.722;17.652;2022-07-18T16:24:37;1.88;;;0.40;;
70727;SDS011;58314;47.722;17.652;2022-07-18T16:27:37;1.50;;;0.40;;
70727;SDS011;58314;47.722;17.652;2022-07-18T16:30:38;23.80;;;2.35;;
70727;SDS011;58314;47.722;17.652;2022-07-18T16:33:39;4.57;;;0.70;;
70727;SDS011;58314;47.722;17.652;2022-07-18T16:36:40;4.20;;;0.60;;
70727;SDS011;58314;47.722;17.652;2022-07-18T16:39:40;2.47;;;0.47;;
70727;SDS011;58314;47.722;17.652;2022-07-18T16:42:41;3.58;;;0.60;;
70727;SDS011;58314;47.722;17.652;2022-07-18T16:45:42;1.48;;;0.43;;
70727;SDS011;58314;47.722;17.652;2022-07-18T16:48:43;2.03;;;0.50;;
70727;SDS011;58314;47.722;17.652;2022-07-18T16:51:44;2.28;;;0.40;;
70727;SDS011;58314;47.722;17.652;2022-07-18T16:54:46;4.53;;;0.52;;
70727;SDS011;58314;47.722;17.652;2022-07-18T16:57:47;2.72;;;0.45;;
70727;SDS011;58314;47.722;17.652;2022-07-18T17:00:48;2.90;;;0.50;;
70727;SDS011;58314;47.722;17.652;2022-07-18T17:03:49;2.03;;;0.40;;
70727;SDS011;58314;47.722;17.652;2022-07-18T17:06:53;1.02;;;0.40;;
70727;SDS011;58314;47.722;17.652;2022-07-18T17:09:54;5.05;;;0.60;;
70727;SDS011;58314;47.722;17.652;2022-07-18T17:12:55;4.93;;;0.60;;
70727;SDS011;58314;47.722;17.652;2022-07-18T17:15:56;1.55;;;0.50;;
70727;SDS011;58314;47.722;17.652;2022-07-18T17:18:57;1.33;;;0.30;;
70727;SDS011;58314;47.722;17.652;2022-07-18T17:21:58;3.70;;;0.50;;
70727;SDS011;58314;47.722;17.652;2022-07-18T17:24:59;2.90;;;0.43;;
70727;SDS011;58314;47.722;17.652;2022-07-18T17:28:01;3.78;;;0.55;;
70727;SDS011;58314;47.722;17.652;2022-07-18T17:31:02;1.77;;;0.40;;
70727;SDS011;58314;47.722;17.652;2022-07-18T17:34:03;2.35;;;0.60;;
70727;SDS011;58314;47.722;17.652;2022-07-18T17:37:04;5.63;;;1.50;;
70727;SDS011;58314;47.722;17.652;2022-07-18T17:40:06;1.70;;;0.55;;
70727;SDS011;58314;47.722;17.652;2022-07-18T17:43:08;2.70;;;0.63;;
70727;SDS011;58314;47.722;17.652;2022-07-18T17:46:09;4.82;;;0.95;;
70727;SDS011;58314;47.722;17.652;2022-07-18T17:49:10;3.53;;;0.55;;
70727;SDS011;58314;47.722;17.652;2022-07-18T17:52:11;1.55;;;0.70;;
70727;SDS011;58314;47.722;17.652;2022-07-18T17:55:13;4.40;;;0.75;;
70727;SDS011;58314;47.722;17.652;2022-07-18T17:58:14;9.20;;;1.02;;
70727;SDS011;58314;47.722;17.652;2022-07-18T18:01:14;4.53;;;0.70;;
70727;SDS011;58314;47.722;17.652;2022-07-18T18:04:15;4.40;;;0.77;;
70727;SDS011;58314;47.722;17.652;2022-07-18T18:07:16;9.82;;;1.10;;
70727;SDS011;58314;47.722;17.652;2022-07-18T18:10:17;5.78;;;0.95;;
70727;SDS011;58314;47.722;17.652;2022-07-18T18:13:19;4.65;;;0.98;;
70727;SDS011;58314;47.722;17.652;2022-07-18T18:16:20;3.45;;;0.80;;
70727;SDS011;58314;47.722;17.652;2022-07-18T18:19:21;6.10;;;0.85;;
70727;SDS011;58314;47.722;17.652;2022-07-18T18:22:22;5.13;;;0.80;;
70727;SDS011;58314;47.722;17.652;2022-07-18T18:25:25;9.00;;;1.00;;
70727;SDS011;58314;47.722;17.652;2022-07-18T18:28:26;2.00;;;0.70;;